Time;durP1;ratioP1;P1;durP2;ratioP2;P2;SDS_P1;SDS_P2;PMS_P1;PMS_P2;Temp;Humidity;BMP_temperature;BMP_pressure;BME280_temperature;BME280_humidity;BME280_pressure;Samples;Min_cycle;Max_cycle;Signal;HPM_P1;HPM_P2
2022/11/03 00:01:41;;;;;;;2.13;1.00;;;23.40;59.20;;;;;;5014847;28;20085;-63
2022/11/03 00:04:10;;;;;;;2.03;1.10;;;23.40;59.20;;;;;;5015426;28;20110;-64
2022/11/03 00:06:36;;;;;;;1.95;1.10;;;23.40;59.20;;;;;;5018154;28;20029;-62
2022/11/03 00:09:05;;;;;;;2.22;1.10;;;23.40;59.70;;;;;;5017415;28;20116;-64
2022/11/03 00:11:34;;;;;;;2.08;1.05;;;23.40;59.20;;;;;;5017495;28;20014;-62
2022/11/03 00:14:01;;;;;;;1.98;1.10;;;23.40;59.20;;;;;;5018572;28;20056;-62
2022/11/03 00:16:27;;;;;;;1.92;0.90;;;23.40;59.20;;;;;;5012867;28;20077;-64
2022/11/03 00:18:53;;;;;;;1.92;1.00;;;23.30;59.20;;;;;;5013946;28;20096;-62
2022/11/03 00:21:18;;;;;;;2.15;1.10;;;23.40;59.20;;;;;;5013628;28;20397;-62
2022/11/03 00:23:44;;;;;;;2.10;1.17;;;23.30;59.10;;;;;;5010207;28;20026;-61
2022/11/03 00:26:17;;;;;;;2.00;1.10;;;23.30;59.10;;;;;;5017916;28;20075;-62
2022/11/03 00:28:45;;;;;;;1.77;1.00;;;23.30;59.10;;;;;;5011072;28;20026;-61
2022/11/03 00:31:13;;;;;;;1.67;1.00;;;23.30;59.10;;;;;;5018664;28;20093;-62
2022/11/03 00:33:40;;;;;;;2.03;1.10;;;23.30;59.10;;;;;;5026522;28;20469;-62
2022/11/03 00:36:07;;;;;;;2.10;1.00;;;23.30;59.10;;;;;;5012635;28;20092;-62
2022/11/03 00:38:33;;;;;;;2.45;1.15;;;23.30;59.10;;;;;;5015406;28;20681;-63
2022/11/03 00:41:01;;;;;;;2.42;1.08;;;23.30;59.10;;;;;;5022284;28;20579;-62
2022/11/03 00:43:28;;;;;;;2.58;1.20;;;23.30;59.10;;;;;;5015188;28;20028;-62
2022/11/03 00:45:55;;;;;;;1.92;1.02;;;23.20;59.00;;;;;;5013506;28;20029;-61
2022/11/03 00:48:31;;;;;;;1.77;1.05;;;23.20;59.10;;;;;;5014912;28;20183;-62
2022/11/03 00:51:17;;;;;;;2.15;1.10;;;23.20;59.00;;;;;;5019812;28;20035;-63
2022/11/03 00:53:46;;;;;;;1.40;0.88;;;23.20;59.00;;;;;;5013251;28;20465;-63
2022/11/03 00:56:24;;;;;;;1.73;1.00;;;23.20;59.00;;;;;;5012980;28;20022;-63
2022/11/03 00:58:50;;;;;;;1.50;1.00;;;23.20;59.10;;;;;;5014493;28;20088;-62
2022/11/03 01:01:19;;;;;;;1.60;1.05;;;23.20;59.00;;;;;;5016803;28;20037;-61
2022/11/03 01:06:49;;;;;;;2.22;1.10;;;23.20;59.00;;;;;;5014524;28;20436;-63
2022/11/03 01:09:25;;;;;;;2.47;1.20;;;23.20;59.00;;;;;;5015262;28;20025;-64
2022/11/03 01:12:02;;;;;;;1.42;0.98;;;23.10;59.00;;;;;;5016014;28;20389;-62
2022/11/03 01:14:37;;;;;;;1.58;0.98;;;23.10;59.50;;;;;;5010319;28;20503;-63
2022/11/03 01:17:08;;;;;;;2.15;1.00;;;23.10;59.00;;;;;;5017309;28;20520;-62
2022/11/03 01:19:34;;;;;;;2.55;1.10;;;23.10;59.00;;;;;;5014621;28;20567;-63
2022/11/03 01:21:59;;;;;;;1.77;0.90;;;23.10;58.90;;;;;;5011379;28;20045;-63
2022/11/03 01:24:25;;;;;;;1.45;0.95;;;23.10;59.00;;;;;;5016661;28;20029;-62
2022/11/03 01:26:50;;;;;;;1.80;0.90;;;23.10;59.00;;;;;;5016265;28;20485;-61
2022/11/03 01:29:17;;;;;;;1.55;0.90;;;23.10;58.90;;;;;;5014248;28;20029;-62
2022/11/03 01:31:42;;;;;;;2.03;1.00;;;23.10;58.90;;;;;;5009730;28;20493;-62
2022/11/03 01:34:14;;;;;;;1.33;0.93;;;23.10;58.90;;;;;;5008754;28;20026;-62
2022/11/03 01:36:39;;;;;;;1.45;0.90;;;23.10;58.90;;;;;;5018202;28;20034;-62
2022/11/03 01:39:05;;;;;;;1.17;0.90;;;23.10;58.90;;;;;;5018949;28;20473;-62
2022/11/03 01:41:30;;;;;;;1.60;0.95;;;23.10;58.90;;;;;;5017860;28;20112;-61
2022/11/03 01:44:08;;;;;;;1.27;0.90;;;23.10;58.90;;;;;;5019339;28;20040;-62
2022/11/03 01:46:42;;;;;;;1.65;1.10;;;23.10;58.90;;;;;;5020201;28;20088;-62
2022/11/03 01:49:18;;;;;;;1.08;0.88;;;23.10;58.90;;;;;;5014993;28;20108;-62
2022/11/03 01:51:52;;;;;;;2.20;1.00;;;23.00;58.90;;;;;;5010342;28;20022;-63
2022/11/03 01:54:21;;;;;;;1.65;0.90;;;23.10;58.90;;;;;;5014300;28;20421;-62
2022/11/03 01:56:50;;;;;;;2.08;1.10;;;23.00;58.80;;;;;;5013668;28;20021;-60
2022/11/03 01:59:17;;;;;;;1.40;1.00;;;23.00;58.80;;;;;;5013189;28;20044;-61
2022/11/03 02:01:44;;;;;;;2.60;1.08;;;23.00;58.80;;;;;;5016188;28;20034;-63
2022/11/03 02:04:19;;;;;;;1.48;0.95;;;23.00;58.80;;;;;;5017238;28;20141;-61
2022/11/03 02:06:48;;;;;;;1.25;0.80;;;23.00;58.80;;;;;;5009755;28;20027;-62
2022/11/03 02:09:14;;;;;;;1.33;0.90;;;23.00;58.80;;;;;;5011310;28;20490;-63
2022/11/03 02:14:24;;;;;;;1.02;0.80;;;23.00;58.80;;;;;;5016182;28;20139;-62
2022/11/03 02:16:53;;;;;;;1.17;0.80;;;22.90;58.80;;;;;;5021941;28;20120;-62
2022/11/03 02:19:33;;;;;;;1.77;0.95;;;22.90;58.70;;;;;;5016300;28;20162;-63
2022/11/03 02:22:27;;;;;;;1.27;0.77;;;22.90;58.80;;;;;;5017692;28;20021;-61
2022/11/03 02:25:31;;;;;;;1.52;0.90;;;22.90;58.80;;;;;;5010407;28;20072;-64
2022/11/03 02:27:57;;;;;;;2.00;1.20;;;22.90;58.70;;;;;;5007527;28;20049;-62
2022/11/03 02:30:24;;;;;;;1.48;0.93;;;22.90;58.70;;;;;;5023051;28;20026;-61
2022/11/03 02:33:10;;;;;;;1.67;1.00;;;22.90;58.70;;;;;;5011722;28;20485;-61
2022/11/03 02:35:39;;;;;;;1.80;1.10;;;22.90;58.70;;;;;;5018095;28;20034;-61
2022/11/03 02:38:10;;;;;;;1.75;1.05;;;22.90;58.80;;;;;;5016450;28;20547;-62
2022/11/03 02:40:41;;;;;;;1.60;0.90;;;22.90;58.70;;;;;;5017824;28;20485;-62
2022/11/03 02:43:09;;;;;;;1.23;0.82;;;22.90;58.80;;;;;;5013356;28;20541;-62
2022/11/03 02:45:35;;;;;;;1.55;0.90;;;22.90;58.80;;;;;;5013318;28;20029;-65
2022/11/03 02:48:03;;;;;;;1.73;0.90;;;22.80;58.70;;;;;;5014287;28;20415;-61
2022/11/03 02:50:32;;;;;;;2.95;1.10;;;22.80;58.70;;;;;;5008426;28;20389;-63
2022/11/03 02:52:58;;;;;;;1.38;0.90;;;22.90;58.70;;;;;;5020041;28;20389;-61
2022/11/03 02:55:39;;;;;;;1.00;0.82;;;22.80;58.70;;;;;;5021246;28;20063;-61
2022/11/03 02:58:42;;;;;;;1.38;1.15;;;22.80;58.70;;;;;;5019398;28;20092;-64
2022/11/03 03:01:21;;;;;;;1.10;0.90;;;22.80;58.70;;;;;;5017372;28;20508;-63
2022/11/03 03:03:52;;;;;;;1.63;1.05;;;22.80;58.70;;;;;;5011774;28;20022;-62
2022/11/03 03:06:31;;;;;;;1.60;1.10;;;22.80;58.70;;;;;;5012661;28;20037;-61
2022/11/03 03:09:01;;;;;;;1.98;1.00;;;22.80;58.70;;;;;;5015805;28;20460;-62
2022/11/03 03:11:36;;;;;;;1.63;0.90;;;22.80;58.70;;;;;;5019637;28;20159;-61
2022/11/03 03:14:07;;;;;;;1.25;0.80;;;22.80;58.70;;;;;;5023179;28;20029;-62
2022/11/03 03:16:36;;;;;;;1.40;0.90;;;22.70;58.70;;;;;;5018730;28;20026;-61
2022/11/03 03:19:25;;;;;;;1.17;0.80;;;22.70;58.70;;;;;;5020543;28;20025;-63
2022/11/03 03:21:56;;;;;;;1.33;0.90;;;22.80;58.80;;;;;;4993688;28;20060;-63
2022/11/03 03:24:37;;;;;;;1.58;0.95;;;22.70;58.70;;;;;;5017470;28;20030;-62
2022/11/03 03:27:10;;;;;;;1.83;0.80;;;22.70;58.70;;;;;;5019371;28;20034;-62
2022/11/03 03:29:47;;;;;;;2.20;0.90;;;22.70;58.70;;;;;;5018286;28;20029;-61
2022/11/03 03:32:17;;;;;;;1.38;1.00;;;22.70;58.70;;;;;;5019857;28;20033;-61
2022/11/03 03:34:46;;;;;;;1.10;0.80;;;22.70;58.70;;;;;;5013962;28;20022;-61
2022/11/03 03:37:14;;;;;;;1.65;1.05;;;22.70;58.70;;;;;;5015075;28;20061;-61
2022/11/03 03:39:44;;;;;;;1.10;0.93;;;22.70;58.70;;;;;;5014594;28;20037;-62
2022/11/03 03:42:13;;;;;;;1.25;0.90;;;22.70;59.30;;;;;;5011665;28;20048;-62
2022/11/03 03:44:40;;;;;;;1.27;0.90;;;22.70;58.70;;;;;;5018808;28;20362;-62
2022/11/03 03:47:13;;;;;;;1.30;1.00;;;22.70;58.70;;;;;;5013512;28;20073;-63
2022/11/03 03:49:39;;;;;;;1.33;0.90;;;22.70;58.70;;;;;;5018842;28;20567;-62
2022/11/03 03:52:04;;;;;;;2.00;1.10;;;22.60;58.70;;;;;;5026311;28;20064;-62
2022/11/03 03:54:30;;;;;;;1.50;0.98;;;22.60;59.00;;;;;;5018584;28;20022;-62
2022/11/03 03:57:01;;;;;;;1.02;0.80;;;22.60;58.70;;;;;;5014592;28;20444;-61
2022/11/03 03:59:27;;;;;;;1.55;0.90;;;22.60;58.70;;;;;;5021927;28;20129;-61
2022/11/03 04:01:53;;;;;;;1.60;1.00;;;22.60;58.70;;;;;;5016724;28;20220;-62
2022/11/03 04:04:19;;;;;;;1.40;0.98;;;22.60;58.70;;;;;;5015955;28;20045;-62
2022/11/03 04:06:44;;;;;;;1.27;0.98;;;22.60;58.70;;;;;;5011508;28;20034;-62
2022/11/03 04:09:10;;;;;;;1.35;1.05;;;22.60;58.70;;;;;;5013909;28;20484;-62
2022/11/03 04:22:32;;;;;;;1.33;0.90;;;22.60;58.70;;;;;;5015454;28;20039;-62
2022/11/03 04:24:59;;;;;;;1.63;1.00;;;22.60;58.70;;;;;;5015594;28;20080;-62
2022/11/03 04:27:36;;;;;;;1.92;0.90;;;22.60;58.70;;;;;;5016753;28;20163;-61
2022/11/03 04:30:08;;;;;;;2.03;1.10;;;22.60;58.70;;;;;;5021419;28;20021;-63
2022/11/03 04:32:35;;;;;;;1.88;1.10;;;22.60;58.70;;;;;;5012305;28;20394;-62
2022/11/03 04:35:08;;;;;;;1.77;1.13;;;22.60;59.20;;;;;;5010329;28;20657;-62
2022/11/03 04:37:34;;;;;;;1.13;0.88;;;22.60;58.70;;;;;;5017115;28;20032;-61
2022/11/03 04:40:00;;;;;;;1.20;0.90;;;22.50;58.70;;;;;;5015850;28;20029;-62
2022/11/03 04:42:29;;;;;;;1.33;1.00;;;22.50;58.60;;;;;;5016165;28;20469;-61
2022/11/03 04:44:56;;;;;;;;;;;22.50;58.70;;;;;;5013525;28;20034;-62
2022/11/03 04:47:21;;;;;;;1.23;0.90;;;22.50;58.60;;;;;;5007984;28;19917;-62
2022/11/03 04:49:47;;;;;;;1.10;0.93;;;22.50;58.70;;;;;;5008511;28;20026;-61
2022/11/03 04:52:20;;;;;;;1.60;1.00;;;22.50;58.70;;;;;;5011893;28;20124;-62
2022/11/03 04:54:49;;;;;;;1.42;1.00;;;22.50;58.70;;;;;;5017837;28;20030;-62
2022/11/03 04:57:16;;;;;;;1.60;1.00;;;22.50;58.70;;;;;;5014106;28;20431;-62
2022/11/03 04:59:46;;;;;;;1.45;1.00;;;22.50;58.70;;;;;;5015246;28;20492;-62
2022/11/03 05:02:16;;;;;;;;;;;22.50;58.70;;;;;;5017246;28;20576;-63
2022/11/03 05:04:42;;;;;;;1.63;1.10;;;22.50;58.70;;;;;;5016802;28;20380;-62
2022/11/03 05:07:22;;;;;;;1.88;1.10;;;22.50;58.70;;;;;;5023154;28;20029;-62
2022/11/03 05:09:49;;;;;;;1.50;1.05;;;22.50;58.70;;;;;;5016550;28;20385;-62
2022/11/03 05:12:15;;;;;;;1.50;0.90;;;22.50;58.70;;;;;;5012376;28;20112;-61
2022/11/03 05:14:41;;;;;;;1.48;0.98;;;22.40;58.70;;;;;;5015630;28;20469;-62
2022/11/03 05:17:17;;;;;;;1.70;1.00;;;22.40;58.70;;;;;;5011858;28;20076;-62
2022/11/03 05:19:43;;;;;;;1.38;0.90;;;22.40;58.70;;;;;;5016642;28;20052;-62
2022/11/03 05:22:18;;;;;;;1.17;0.90;;;22.40;58.70;;;;;;5013492;28;20037;-62
2022/11/03 05:24:43;;;;;;;1.48;1.10;;;22.40;58.70;;;;;;5004319;28;20030;-62
2022/11/03 05:27:19;;;;;;;1.55;0.95;;;22.40;58.70;;;;;;5010238;28;20034;-61
2022/11/03 05:29:46;;;;;;;1.23;0.90;;;22.40;58.70;;;;;;5013389;28;20370;-62
2022/11/03 05:32:17;;;;;;;1.98;0.80;;;22.40;58.80;;;;;;5017001;28;20104;-62
2022/11/03 05:34:45;;;;;;;1.30;1.00;;;22.40;58.80;;;;;;5015812;28;20500;-61
2022/11/03 05:37:27;;;;;;;1.50;1.00;;;22.40;58.80;;;;;;5015721;28;20512;-63
2022/11/03 05:39:56;;;;;;;1.10;0.80;;;22.40;58.80;;;;;;5013078;28;20041;-62
2022/11/03 05:42:21;;;;;;;1.15;1.00;;;22.40;58.80;;;;;;5015767;28;20436;-64
2022/11/03 05:44:50;;;;;;;1.20;1.00;;;22.40;58.80;;;;;;5018791;28;20022;-62
2022/11/03 05:47:36;;;;;;;1.35;1.00;;;22.40;58.80;;;;;;5011300;28;20473;-62
2022/11/03 05:50:19;;;;;;;1.10;0.80;;;22.40;58.80;;;;;;5006183;28;20109;-62
2022/11/03 05:52:46;;;;;;;1.20;0.82;;;22.40;58.80;;;;;;5010858;28;20053;-62
2022/11/03 05:55:31;;;;;;;1.40;0.90;;;22.40;58.80;;;;;;5019397;28;20037;-62
2022/11/03 05:57:59;;;;;;;1.73;0.90;;;22.40;58.80;;;;;;5015882;28;20025;-61
2022/11/03 06:00:32;;;;;;;1.50;0.90;;;22.40;58.80;;;;;;5009797;28;20074;-63
2022/11/03 06:02:59;;;;;;;1.15;0.88;;;22.40;58.80;;;;;;5013670;28;20031;-62
2022/11/03 06:05:25;;;;;;;1.40;0.90;;;22.30;58.80;;;;;;5017507;28;20057;-62
2022/11/03 06:07:59;;;;;;;1.27;0.90;;;22.30;58.80;;;;;;5010021;28;20025;-63
2022/11/03 06:10:24;;;;;;;2.58;1.00;;;22.30;58.80;;;;;;5018156;28;20380;-61
2022/11/03 06:12:53;;;;;;;1.38;0.80;;;22.30;58.80;;;;;;5017440;28;20018;-61
2022/11/03 06:15:46;;;;;;;1.38;0.98;;;22.30;58.80;;;;;;5012687;28;20058;-62
2022/11/03 06:18:20;;;;;;;1.40;0.90;;;22.30;58.80;;;;;;5012868;28;20046;-62
2022/11/03 06:20:58;;;;;;;1.05;0.90;;;22.30;58.80;;;;;;5014911;28;20034;-61
2022/11/03 06:23:24;;;;;;;1.23;0.90;;;22.30;58.80;;;;;;5015894;28;20116;-61
2022/11/03 06:25:52;;;;;;;1.25;0.90;;;22.30;58.80;;;;;;5012345;28;20400;-61
2022/11/03 06:28:29;;;;;;;1.05;0.90;;;22.30;58.80;;;;;;5011262;28;20097;-63
2022/11/03 06:30:55;;;;;;;1.50;1.08;;;22.30;58.80;;;;;;5018414;28;20125;-61
2022/11/03 06:33:25;;;;;;;1.30;0.90;;;22.30;58.80;;;;;;5029517;28;20026;-61
2022/11/03 06:35:57;;;;;;;1.35;1.00;;;22.30;58.80;;;;;;5016585;28;20532;-61
2022/11/03 06:38:26;;;;;;;1.10;0.88;;;22.30;58.80;;;;;;5015763;28;20033;-62
2022/11/03 06:40:52;;;;;;;1.00;0.80;;;22.30;58.80;;;;;;5014066;28;20046;-61
2022/11/03 06:43:24;;;;;;;1.23;0.80;;;22.30;58.80;;;;;;5016438;28;20513;-61
2022/11/03 06:45:55;;;;;;;1.52;0.98;;;22.20;58.80;;;;;;5014984;28;20052;-61
2022/11/03 06:48:24;;;;;;;1.33;0.88;;;22.20;58.80;;;;;;5019300;28;20025;-61
2022/11/03 06:50:50;;;;;;;1.02;0.90;;;22.20;58.80;;;;;;5020713;28;20048;-61
2022/11/03 06:53:22;;;;;;;1.58;0.95;;;22.20;58.80;;;;;;5018125;28;20026;-61
2022/11/03 06:55:48;;;;;;;1.52;0.93;;;22.20;58.80;;;;;;5018917;28;20037;-61
2022/11/03 06:58:22;;;;;;;1.52;0.90;;;22.20;58.80;;;;;;5020251;28;20485;-61
2022/11/03 07:00:48;;;;;;;1.50;1.00;;;22.30;58.90;;;;;;5012971;28;20449;-61
2022/11/03 07:03:27;;;;;;;1.45;0.90;;;22.20;58.80;;;;;;5019182;28;20029;-61
2022/11/03 07:06:20;;;;;;;1.00;0.90;;;22.20;58.80;;;;;;5011530;28;20038;-62
2022/11/03 07:08:53;;;;;;;1.45;1.00;;;22.20;59.30;;;;;;5010414;28;20033;-61
2022/11/03 07:11:23;;;;;;;1.25;0.93;;;22.20;58.80;;;;;;5020253;28;20030;-63
2022/11/03 07:13:56;;;;;;;1.25;0.90;;;22.20;58.80;;;;;;5017799;28;20029;-61
2022/11/03 07:16:36;;;;;;;1.30;0.90;;;22.20;58.80;;;;;;5013869;28;20431;-63
2022/11/03 07:19:05;;;;;;;1.50;0.95;;;22.20;58.80;;;;;;5014153;28;20085;-62
2022/11/03 07:21:44;;;;;;;1.38;0.95;;;22.20;58.80;;;;;;5010210;28;20069;-61
2022/11/03 07:24:14;;;;;;;;;;;22.20;58.90;;;;;;5013897;28;20501;-61
2022/11/03 07:26:39;;;;;;;1.35;0.90;;;22.20;58.90;;;;;;5019259;28;19917;-61
2022/11/03 07:29:11;;;;;;;1.50;1.10;;;22.10;58.80;;;;;;5017260;28;20030;-61
2022/11/03 07:31:36;;;;;;;1.17;0.95;;;22.20;58.90;;;;;;5018313;28;20527;-61
2022/11/03 07:34:10;;;;;;;1.40;1.00;;;22.20;58.90;;;;;;5021156;28;20112;-61
2022/11/03 07:36:35;;;;;;;1.20;0.82;;;22.20;58.90;;;;;;5015391;28;20417;-61
2022/11/03 07:39:02;;;;;;;1.60;1.00;;;22.20;58.90;;;;;;5016677;28;20042;-61
2022/11/03 07:41:31;;;;;;;1.30;0.82;;;22.10;58.80;;;;;;5018164;28;20060;-61
2022/11/03 07:43:59;;;;;;;0.90;0.77;;;22.10;58.80;;;;;;5015026;28;20030;-61
2022/11/03 07:46:25;;;;;;;0.95;0.88;;;22.10;58.80;;;;;;5013496;28;20485;-61
2022/11/03 07:48:55;;;;;;;0.95;0.80;;;22.10;58.80;;;;;;5017241;28;20022;-61
2022/11/03 07:51:28;;;;;;;1.42;1.10;;;22.10;58.80;;;;;;5014324;28;20215;-61
2022/11/03 07:54:22;;;;;;;1.50;0.98;;;22.10;58.80;;;;;;5016447;28;20504;-61
2022/11/03 07:56:57;;;;;;;1.17;0.80;;;22.10;58.80;;;;;;5013152;28;20030;-63
2022/11/03 07:59:31;;;;;;;1.10;0.80;;;22.10;58.80;;;;;;5009510;28;20120;-62
2022/11/03 08:01:57;;;;;;;1.42;0.80;;;22.10;58.80;;;;;;5016709;28;20029;-61
2022/11/03 08:04:35;;;;;;;1.20;0.82;;;22.10;58.90;;;;;;5016988;28;20037;-61
2022/11/03 08:07:01;;;;;;;1.10;0.90;;;22.10;58.80;;;;;;5021599;28;20031;-61
2022/11/03 08:09:26;;;;;;;1.30;0.90;;;22.10;58.80;;;;;;5021032;28;20032;-62
2022/11/03 08:11:52;;;;;;;1.80;0.80;;;22.10;58.90;;;;;;5020130;28;20021;-61
2022/11/03 08:14:18;;;;;;;0.93;0.80;;;22.10;58.90;;;;;;5015567;28;20030;-61
2022/11/03 08:16:43;;;;;;;0.80;0.80;;;22.10;58.90;;;;;;5021656;28;20504;-60
2022/11/03 08:19:09;;;;;;;1.65;0.98;;;22.10;58.90;;;;;;5017644;28;20025;-62
2022/11/03 08:21:35;;;;;;;0.90;0.73;;;22.10;58.90;;;;;;5020281;28;20474;-62
2022/11/03 08:24:00;;;;;;;1.23;0.90;;;22.10;58.90;;;;;;5022928;28;20489;-61
2022/11/03 08:26:26;;;;;;;1.20;0.90;;;22.00;58.80;;;;;;5017506;28;20130;-61
2022/11/03 08:28:52;;;;;;;1.67;0.90;;;22.10;58.90;;;;;;5010039;28;20025;-61
2022/11/03 08:31:18;;;;;;;1.00;0.90;;;22.10;58.90;;;;;;5014916;28;20121;-61
2022/11/03 08:33:44;;;;;;;1.38;0.93;;;22.10;58.90;;;;;;5014618;28;20037;-61
2022/11/03 08:36:10;;;;;;;1.23;0.88;;;22.00;58.80;;;;;;5016635;28;20665;-61
2022/11/03 08:38:36;;;;;;;1.10;1.00;;;22.00;59.40;;;;;;5015491;28;20030;-62
2022/11/03 08:41:02;;;;;;;0.70;0.70;;;22.00;58.80;;;;;;5015575;28;20037;-61
2022/11/03 08:43:28;;;;;;;1.08;0.90;;;22.00;58.90;;;;;;5020385;28;20048;-62
2022/11/03 08:45:54;;;;;;;1.10;0.80;;;22.10;58.90;;;;;;5024346;28;20488;-61
2022/11/03 08:48:20;;;;;;;1.42;1.00;;;22.00;58.90;;;;;;5019722;28;20488;-62
2022/11/03 08:50:47;;;;;;;1.15;0.85;;;22.00;58.90;;;;;;5009483;28;20108;-61
2022/11/03 08:53:13;;;;;;;1.27;0.90;;;22.00;58.80;;;;;;5021053;28;20026;-62
2022/11/03 08:55:38;;;;;;;0.90;0.80;;;22.00;58.90;;;;;;5019377;28;20044;-61
2022/11/03 08:58:04;;;;;;;1.10;0.90;;;22.00;58.90;;;;;;5017786;28;20062;-62
2022/11/03 09:00:29;;;;;;;1.10;0.90;;;22.00;58.90;;;;;;5011719;28;20080;-61
2022/11/03 09:02:55;;;;;;;1.45;1.00;;;22.00;58.90;;;;;;5005656;28;20529;-61
2022/11/03 09:05:20;;;;;;;1.08;0.80;;;22.00;58.90;;;;;;5006209;28;20033;-61
2022/11/03 09:07:46;;;;;;;1.30;0.88;;;22.00;58.90;;;;;;5009343;28;20105;-60
2022/11/03 09:10:12;;;;;;;0.90;0.73;;;22.00;58.90;;;;;;5015751;28;20030;-63
2022/11/03 09:12:37;;;;;;;1.13;0.85;;;22.00;58.90;;;;;;5022088;28;20026;-61
2022/11/03 09:15:05;;;;;;;1.30;0.90;;;22.00;58.90;;;;;;5013518;28;20029;-61
2022/11/03 09:17:30;;;;;;;1.00;0.80;;;22.00;58.90;;;;;;5015063;28;20068;-60
2022/11/03 09:19:56;;;;;;;1.05;0.80;;;22.00;58.90;;;;;;5013450;28;20057;-62
2022/11/03 09:22:22;;;;;;;1.00;0.90;;;22.00;59.00;;;;;;5020392;28;20536;-61
2022/11/03 09:24:48;;;;;;;1.20;0.80;;;22.00;58.90;;;;;;5019219;28;20122;-61
2022/11/03 09:27:13;;;;;;;1.42;0.93;;;22.00;58.90;;;;;;5011158;28;20121;-62
2022/11/03 09:29:39;;;;;;;1.48;0.80;;;22.00;59.00;;;;;;5011017;28;20064;-62
2022/11/03 09:32:05;;;;;;;0.80;0.80;;;22.00;59.00;;;;;;5019250;28;20044;-61
2022/11/03 09:34:31;;;;;;;1.30;1.00;;;21.90;58.90;;;;;;5018099;28;20023;-61
2022/11/03 09:36:56;;;;;;;1.42;0.90;;;22.00;59.00;;;;;;5011137;28;20099;-61
2022/11/03 09:39:22;;;;;;;0.80;0.80;;;21.90;58.90;;;;;;5008217;28;20030;-62
2022/11/03 09:41:48;;;;;;;0.90;0.70;;;22.00;59.00;;;;;;5004013;28;20029;-63
2022/11/03 09:44:14;;;;;;;1.55;0.80;;;21.90;58.90;;;;;;5008806;28;20026;-61
2022/11/03 09:46:40;;;;;;;1.48;0.85;;;21.90;58.90;;;;;;5017523;28;20028;-62
2022/11/03 09:49:06;;;;;;;1.25;0.85;;;21.90;59.00;;;;;;5012937;28;20025;-62
2022/11/03 09:51:35;;;;;;;1.90;0.73;;;22.00;59.00;;;;;;5012425;28;20034;-61
2022/11/03 09:54:04;;;;;;;1.00;0.90;;;22.00;59.00;;;;;;5013199;28;20030;-61
2022/11/03 09:56:34;;;;;;;1.35;0.90;;;21.90;58.90;;;;;;5014094;28;20742;-61
2022/11/03 09:58:59;;;;;;;1.42;0.90;;;21.90;58.90;;;;;;5017093;28;20520;-61
2022/11/03 10:01:25;;;;;;;0.80;0.75;;;21.90;59.00;;;;;;5021995;28;20042;-61
2022/11/03 10:03:51;;;;;;;1.40;0.98;;;21.90;59.00;;;;;;5021302;28;20029;-62
2022/11/03 10:06:17;;;;;;;1.08;0.80;;;21.90;59.00;;;;;;5019099;28;20118;-61
2022/11/03 10:08:44;;;;;;;0.70;0.70;;;21.90;59.00;;;;;;5021189;28;20026;-62
2022/11/03 10:11:11;;;;;;;1.67;0.90;;;21.90;59.00;;;;;;5019263;28;20539;-62
2022/11/03 10:13:43;;;;;;;1.33;0.90;;;21.90;59.00;;;;;;5015335;28;20026;-62
2022/11/03 10:16:13;;;;;;;0.90;0.80;;;21.90;59.00;;;;;;5012439;28;20045;-61
2022/11/03 10:18:39;;;;;;;1.15;0.80;;;21.90;59.00;;;;;;5014706;28;20036;-61
2022/11/03 10:21:11;;;;;;;0.90;0.80;;;21.90;59.00;;;;;;5018125;28;20470;-60
2022/11/03 10:23:36;;;;;;;0.80;0.80;;;21.90;59.00;;;;;;5017810;28;20536;-62
2022/11/03 10:26:17;;;;;;;1.42;0.93;;;21.90;59.00;;;;;;5019895;28;20030;-61
2022/11/03 10:29:07;;;;;;;1.15;0.80;;;21.90;59.00;;;;;;5033615;28;20105;-62
2022/11/03 10:31:38;;;;;;;1.30;1.00;;;21.90;59.00;;;;;;5016934;28;20037;-63
2022/11/03 10:34:23;;;;;;;1.10;0.80;;;21.90;59.00;;;;;;5012219;28;20409;-61
2022/11/03 10:36:49;;;;;;;1.55;0.90;;;21.90;59.00;;;;;;5020895;28;20072;-63
2022/11/03 10:39:32;;;;;;;1.48;0.82;;;21.90;59.00;;;;;;5019451;28;20491;-61
2022/11/03 10:41:58;;;;;;;1.38;0.90;;;21.90;59.00;;;;;;5014833;28;20026;-61
2022/11/03 10:44:27;;;;;;;1.13;0.80;;;21.90;59.00;;;;;;5011754;28;20030;-61
2022/11/03 10:47:17;;;;;;;2.58;1.08;;;21.90;59.00;;;;;;5003104;28;20030;-61
2022/11/03 10:49:42;;;;;;;1.90;1.08;;;21.90;59.00;;;;;;5008802;28;20029;-63
2022/11/03 10:52:23;;;;;;;1.30;0.90;;;21.90;59.00;;;;;;5016423;28;20083;-60
2022/11/03 10:54:51;;;;;;;1.15;0.90;;;21.90;59.00;;;;;;5020308;28;20037;-61
2022/11/03 10:57:17;;;;;;;0.90;0.80;;;21.90;59.00;;;;;;5022543;28;20370;-60
2022/11/03 10:59:45;;;;;;;1.50;0.80;;;21.90;59.00;;;;;;5013190;28;20041;-62
2022/11/03 11:02:24;;;;;;;1.17;1.00;;;21.80;58.90;;;;;;5012870;28;20447;-62
2022/11/03 11:04:58;;;;;;;1.15;0.80;;;21.90;59.00;;;;;;5025112;28;20445;-61
2022/11/03 11:07:30;;;;;;;1.00;0.82;;;21.90;59.00;;;;;;5019555;28;20029;-62
2022/11/03 11:10:06;;;;;;;1.33;0.90;;;21.80;59.00;;;;;;5015671;28;20031;-61
2022/11/03 11:12:31;;;;;;;0.98;0.80;;;21.90;59.00;;;;;;5011135;28;20175;-61
2022/11/03 11:14:59;;;;;;;1.48;0.90;;;21.90;59.00;;;;;;5020014;28;20109;-61
2022/11/03 11:17:36;;;;;;;0.93;0.80;;;21.90;59.00;;;;;;5020282;28;20052;-61
2022/11/03 11:20:21;;;;;;;1.65;0.90;;;21.90;59.10;;;;;;5014700;28;20045;-61
2022/11/03 11:22:48;;;;;;;1.00;0.90;;;21.90;59.00;;;;;;5006919;28;20044;-62
2022/11/03 11:25:13;;;;;;;0.93;0.70;;;21.90;59.10;;;;;;5019390;28;20485;-61
2022/11/03 11:27:54;;;;;;;0.88;0.70;;;21.80;59.00;;;;;;5008845;28;20072;-62
2022/11/03 11:30:20;;;;;;;1.08;0.80;;;21.90;59.10;;;;;;5013516;28;20496;-61
2022/11/03 11:32:48;;;;;;;1.08;0.80;;;21.80;59.10;;;;;;5017140;28;20029;-61
2022/11/03 11:35:37;;;;;;;0.80;0.80;;;21.90;59.20;;;;;;5009675;28;20026;-61
2022/11/03 11:38:40;;;;;;;1.03;0.90;;;21.80;59.10;;;;;;5008186;28;20132;-61
2022/11/03 11:41:06;;;;;;;0.90;0.80;;;21.80;59.10;;;;;;5016425;28;20365;-60
2022/11/03 11:43:31;;;;;;;1.30;1.00;;;21.90;59.20;;;;;;5024943;28;20102;-61
2022/11/03 11:46:22;;;;;;;1.27;0.80;;;21.90;59.20;;;;;;5020930;28;20096;-61
2022/11/03 11:49:03;;;;;;;1.10;0.90;;;21.90;59.20;;;;;;5017049;28;20129;-61
2022/11/03 11:51:36;;;;;;;0.93;0.70;;;21.90;59.20;;;;;;5019807;28;20156;-61
2022/11/03 11:54:13;;;;;;;1.27;0.90;;;21.90;59.30;;;;;;5014447;28;20037;-61
2022/11/03 11:56:44;;;;;;;1.38;0.95;;;21.80;59.20;;;;;;5016247;28;20033;-61
2022/11/03 11:59:20;;;;;;;1.10;0.90;;;21.80;59.20;;;;;;5010504;28;20504;-61
2022/11/03 12:01:55;;;;;;;1.00;0.80;;;21.90;59.30;;;;;;5007816;28;20516;-61
2022/11/03 12:04:25;;;;;;;1.35;1.00;;;21.80;59.20;;;;;;5009951;28;20037;-63
2022/11/03 12:06:51;;;;;;;1.05;0.90;;;21.80;59.30;;;;;;5017629;28;20384;-60
2022/11/03 12:09:22;;;;;;;0.93;0.75;;;21.80;59.70;;;;;;5015763;28;20026;-61
2022/11/03 12:11:48;;;;;;;1.10;0.70;;;21.80;59.30;;;;;;5014110;28;20028;-60
2022/11/03 12:14:24;;;;;;;1.08;0.77;;;21.80;59.30;;;;;;5012474;28;20034;-61
2022/11/03 12:16:51;;;;;;;1.30;0.90;;;21.80;59.30;;;;;;5008101;28;20025;-60
2022/11/03 12:19:38;;;;;;;1.00;0.80;;;21.80;59.30;;;;;;5018497;28;20112;-62
2022/11/03 12:22:09;;;;;;;1.65;1.10;;;21.80;59.30;;;;;;5016240;28;20488;-62
2022/11/03 12:24:52;;;;;;;1.52;0.88;;;21.80;59.30;;;;;;5014746;28;20029;-61
2022/11/03 12:27:23;;;;;;;1.50;1.00;;;21.80;59.40;;;;;;5013789;28;20041;-61
2022/11/03 12:29:58;;;;;;;1.10;0.90;;;21.80;59.50;;;;;;5014114;28;20030;-60
2022/11/03 12:32:25;;;;;;;1.00;0.85;;;21.80;59.50;;;;;;5017252;28;20050;-60
2022/11/03 12:34:53;;;;;;;1.35;0.88;;;21.80;59.50;;;;;;5013153;28;20029;-60
2022/11/03 12:37:19;;;;;;;0.90;0.85;;;21.80;59.50;;;;;;5014602;28;20094;-60
2022/11/03 12:39:44;;;;;;;1.13;0.90;;;21.80;59.50;;;;;;5018504;28;20026;-61
2022/11/03 12:42:10;;;;;;;1.67;1.00;;;21.80;59.50;;;;;;5021006;28;20029;-60
2022/11/03 12:44:35;;;;;;;2.65;0.90;;;21.80;59.60;;;;;;5011691;28;20042;-60
2022/11/03 12:47:01;;;;;;;1.23;1.00;;;21.80;59.50;;;;;;5015599;28;20311;-61
2022/11/03 12:49:27;;;;;;;2.22;0.90;;;21.80;59.60;;;;;;5015431;28;20474;-62
2022/11/03 12:51:52;;;;;;;2.22;1.00;;;21.80;59.80;;;;;;5013818;28;20489;-62
2022/11/03 12:54:18;;;;;;;0.93;0.80;;;21.80;59.60;;;;;;5016640;28;20029;-61
2022/11/03 12:56:43;;;;;;;2.35;1.00;;;21.80;59.70;;;;;;5012782;28;20132;-60
2022/11/03 12:59:09;;;;;;;1.40;1.00;;;21.80;59.60;;;;;;5019275;28;20511;-61
2022/11/03 13:01:35;;;;;;;1.13;0.90;;;21.80;59.60;;;;;;5018445;28;20064;-61
2022/11/03 13:04:00;;;;;;;1.70;1.00;;;21.80;59.70;;;;;;5019112;28;20473;-62
2022/11/03 13:06:26;;;;;;;2.47;1.20;;;21.80;59.70;;;;;;5011197;28;20114;-61
2022/11/03 13:08:52;;;;;;;2.13;1.00;;;21.80;59.60;;;;;;5013260;28;20447;-62
2022/11/03 13:14:03;;;;;;;1.52;0.93;;;21.80;59.70;;;;;;5009019;28;20128;-60
2022/11/03 13:16:29;;;;;;;2.10;1.00;;;21.80;59.70;;;;;;5007382;28;20038;-61
2022/11/03 13:18:55;;;;;;;2.05;1.00;;;21.70;59.60;;;;;;5010806;28;20401;-60
2022/11/03 13:21:20;;;;;;;2.00;0.90;;;21.70;59.60;;;;;;5007676;28;20080;-61
2022/11/03 13:23:46;;;;;;;1.58;1.02;;;21.80;59.70;;;;;;5015166;28;20107;-60